Data for 10/19/2007

Time Sea-Level Adjusted Pressure Absolute Pressure Temperature Relative Humidity Dew Point   
(mb) (inHg) (mb) (inHg) (C) (F) (%) (C) (F)
00:05 1011 29.85 840 24.81 7.6 45.6 51 -1.8 28.8
00:10 1011 29.85 840 24.81 7.6 45.6 52 -1.8 28.8
00:15 1011 29.85 840 24.81 7.5 45.5 52 -1.7 28.9
00:20 1011 29.85 840 24.81 7.6 45.8 51 -1.8 28.8
00:25 1011 29.85 840 24.81 7.8 46.1 49 -2.1 28.2
00:30 1011 29.85 840 24.81 8.1 46.6 49 -1.9 28.6
00:35 1011 29.85 840 24.81 8.2 46.7 51 -1.5 29.4
00:40 1011 29.85 840 24.81 7.9 46.3 52 -1.3 29.6
00:45 1011 29.85 840 24.81 7.8 46.1 51 -1.6 29.1
00:50 1011 29.85 840 24.81 7.9 46.3 50 -1.9 28.6
00:55 1011 29.85 840 24.81 8.2 46.7 49 -1.8 28.7
01:00 1011 29.85 840 24.81 8.4 47 49 -1.6 29.1
01:05 1011 29.85 840 24.81 8.5 47.3 48 -1.7 28.9
01:10 1010 29.83 840 24.81 8.7 47.7 48 -1.6 29.1
01:15 1010 29.83 839 24.78 8.8 47.8 49 -1.4 29.4
01:20 1010 29.83 839 24.78 8.7 47.7 49 -1.4 29.4
01:25 1010 29.83 839 24.78 8.7 47.6 49 -1.4 29.6
01:30 1010 29.83 839 24.78 8.5 47.2 50 -1.3 29.6
01:35 1010 29.83 839 24.78 8.3 47 51 -1.3 29.6
01:40 1010 29.83 839 24.78 8.2 46.8 50 -1.5 29.4
01:45 1010 29.83 839 24.78 8.3 46.9 50 -1.6 29.1
01:50 1010 29.83 839 24.78 8.3 47 50 -1.4 29.4
01:55 1010 29.83 839 24.78 8.3 47 50 -1.3 29.6
02:00 1010 29.83 839 24.78 8.3 47 51 -1.3 29.7
02:05 1010 29.83 839 24.78 8.3 46.9 51 -1.3 29.7
02:10 1010 29.83 839 24.78 8.2 46.8 52 -1 30.2
02:15 1010 29.83 839 24.78 8.2 46.7 52 -1.2 29.8
02:20 1010 29.83 839 24.78 8.1 46.7 51 -1.3 29.7
02:25 1010 29.83 839 24.78 8.1 46.6 52 -1.2 29.8
02:30 1010 29.83 839 24.78 8.1 46.7 51 -1.4 29.5
02:35 1010 29.83 840 24.81 8.2 46.7 52 -1.2 29.9
02:40 1010 29.83 840 24.81 8 46.5 52 -1.1 29.9
02:45 1010 29.83 840 24.81 8 46.3 53 -1.1 30
02:50 1010 29.83 840 24.81 8.1 46.6 52 -1.1 30.1
02:55 1010 29.83 840 24.81 8.2 46.7 54 -0.7 30.8
03:00 1010 29.83 839 24.78 8 46.3 55 -0.6 30.9
03:05 1010 29.83 839 24.78 7.7 45.9 56 -0.6 30.9
03:10 1010 29.83 839 24.78 7.5 45.5 57 -0.6 31
03:15 1010 29.83 839 24.78 7.2 44.9 58 -0.6 31
03:20 1010 29.83 839 24.78 7 44.6 57 -0.8 30.5
03:25 1010 29.83 839 24.78 7.3 45.2 55 -1.1 30
03:30 1010 29.83 839 24.78 7.5 45.6 56 -0.7 30.7
03:35 1010 29.83 839 24.78 7.2 44.9 58 -0.6 30.9
03:40 1010 29.83 839 24.78 7 44.6 57 -0.9 30.4
03:45 1009 29.8 839 24.78 7.1 44.7 57 -0.8 30.6
03:50 1009 29.8 838 24.75 7 44.6 57 -0.8 30.5
03:55 1009 29.8 838 24.75 7.1 44.7 58 -0.6 31
04:00 1009 29.8 838 24.75 6.9 44.5 60 -0.3 31.5
04:05 1009 29.8 838 24.75 6.8 44.2 60 -0.3 31.4
04:10 1009 29.8 838 24.75 6.7 44.1 61 -0.3 31.5
04:15 1009 29.8 838 24.75 6.6 43.9 62 -0.2 31.6
04:20 1009 29.8 838 24.75 6.6 43.8 62 -0.2 31.7
04:25 1009 29.8 838 24.75 6.5 43.7 62 -0.1 31.7
04:30 1009 29.8 838 24.75 6.5 43.7 62 -0.2 31.6
04:35 1009 29.8 838 24.75 6.5 43.7 62 -0.2 31.6
04:40 1009 29.8 838 24.75 6.6 43.9 58 -1.1 29.9
04:45 1009 29.8 838 24.75 7 44.6 61 -0.1 31.8
04:50 1009 29.8 838 24.75 6.7 44.1 61 -0.2 31.7
04:55 1009 29.8 838 24.75 6.6 43.8 61 -0.5 31.2
05:00 1009 29.8 838 24.75 6.6 43.9 61 -0.3 31.4
05:05 1009 29.8 838 24.75 6.6 43.9 61 -0.3 31.4
05:10 1009 29.8 838 24.75 6.6 43.9 61 -0.3 31.5
05:15 1009 29.8 838 24.75 6.5 43.7 61 -0.5 31.2
05:20 1009 29.8 838 24.75 6.5 43.7 61 -0.4 31.2
05:25 1009 29.8 838 24.75 6.5 43.8 61 -0.4 31.2
05:30 1009 29.8 838 24.75 6.6 43.9 60 -0.5 31.2
05:35 1009 29.8 838 24.75 6.8 44.2 65 0.7 33.2
05:40 1009 29.8 838 24.75 6.8 44.2 67 1.1 33.9
05:45 1009 29.8 838 24.75 6.4 43.5 66 0.6 33.1
05:50 1009 29.8 838 24.75 6.1 42.9 72 1.4 34.5
05:55 1009 29.8 838 24.75 5.7 42.2 78 2.1 35.7
06:00 1009 29.8 838 24.75 5.3 41.5 81 2.3 36.1
06:05 1009 29.8 838 24.75 5 40.9 82 2.2 35.9
06:10 1008 29.77 838 24.75 4.8 40.6 84 2.3 36.1
06:15 1008 29.77 837 24.72 4.7 40.4 86 2.5 36.6
06:20 1008 29.77 837 24.72 4.5 40.1 87 2.5 36.5
06:25 1008 29.77 837 24.72 4.4 40 89 2.8 37
06:30 1007 29.74 837 24.72 4.3 39.8 90 2.8 37
06:35 1007 29.74 837 24.72 4.3 39.8 89 2.7 36.8
06:40 1007 29.74 837 24.72 4.4 39.9 89 2.7 36.8
06:45 1007 29.74 836 24.69 4.3 39.8 88 2.6 36.6
06:50 1007 29.74 836 24.69 4.2 39.6 88 2.4 36.3
06:55 1007 29.74 837 24.72 4.2 39.5 87 2.1 35.9
07:00 1007 29.74 836 24.69 4.1 39.5 87 2.2 35.9
07:05 1007 29.74 836 24.69 4.2 39.6 85 1.9 35.4
07:10 1007 29.74 836 24.69 4.3 39.8 85 2.1 35.8
07:15 1007 29.74 836 24.69 4.4 39.9 85 2 35.7
07:20 1007 29.74 836 24.69 4.5 40 84 2 35.7
07:25 1007 29.74 836 24.69 4.4 40 84 2 35.6
07:30 1007 29.74 836 24.69 4.4 40 84 2 35.6
07:35 1007 29.74 836 24.69 4.4 40 83 1.8 35.2
07:40 1007 29.74 836 24.69 4.4 40 83 1.8 35.2
07:45 1007 29.74 836 24.69 4.4 39.9 82 1.7 35
07:50 1007 29.74 836 24.69 4.4 39.9 83 1.7 35
07:55 1007 29.74 837 24.72 4.4 39.9 83 1.8 35.2
08:00 1007 29.74 837 24.72 4.4 40 83 1.8 35.3
08:05 1007 29.74 837 24.72 4.5 40.2 84 2.1 35.8
08:10 1007 29.74 837 24.72 4.6 40.3 83 2 35.6
08:15 1007 29.74 837 24.72 4.6 40.3 85 2.3 36.1
08:20 1007 29.74 837 24.72 4.5 40 86 2.3 36.1
08:25 1007 29.74 837 24.72 4.4 39.9 86 2.2 35.9
08:30 1007 29.74 837 24.72 4.3 39.8 86 2.2 35.9
08:35 1007 29.74 837 24.72 4.3 39.8 87 2.3 36.2
08:40 1007 29.74 836 24.69 4.4 39.8 86 2.2 36
08:45 1007 29.74 836 24.69 4.3 39.8 85 2.1 35.7
08:50 1007 29.74 836 24.69 4.4 39.8 85 2.1 35.8
08:55 1007 29.74 836 24.69 4.3 39.8 87 2.4 36.4
09:00 1007 29.74 836 24.69 4.3 39.7 87 2.3 36.2
09:05 1007 29.74 836 24.69 4.4 39.8 87 2.4 36.3
09:10 1007 29.74 836 24.69 4.5 40 87 2.4 36.3
09:15 1007 29.74 836 24.69 4.5 40.2 86 2.4 36.4
09:20 1007 29.74 836 24.69 4.6 40.3 87 2.6 36.7
09:25 1007 29.74 836 24.69 4.7 40.4 87 2.6 36.8
09:30 1007 29.74 836 24.69 4.7 40.4 87 2.7 36.8
09:35 1007 29.74 836 24.69 4.8 40.6 86 2.7 36.8
09:40 1007 29.74 836 24.69 4.8 40.7 86 2.7 36.9
09:45 1007 29.74 836 24.69 5 41 86 2.8 37.1
09:50 1007 29.74 836 24.69 5.1 41.2 85 2.8 37
09:55 1007 29.74 836 24.69 5.1 41.2 86 3 37.3
10:00 1007 29.74 836 24.69 5.2 41.3 86 3 37.4
10:05 1007 29.74 836 24.69 5.4 41.7 84 2.9 37.2
10:10 1007 29.74 836 24.69 5.5 41.9 85 3.1 37.6
10:15 1007 29.74 836 24.69 5.6 42.1 82 2.9 37.1
10:20 1007 29.74 836 24.69 5.8 42.4 83 3.1 37.5
10:25 1007 29.74 836 24.69 5.9 42.7 82 3.1 37.5
10:30 1007 29.74 836 24.69 6.1 42.9 81 3.1 37.5
10:35 1007 29.74 836 24.69 6.2 43.1 80 3.1 37.5
10:40 1007 29.74 836 24.69 6.3 43.3 81 3.2 37.8
10:45 1007 29.74 836 24.69 6.5 43.7 81 3.4 38.2
10:50 1007 29.74 836 24.69 6.6 43.9 81 3.7 38.6
10:55 1007 29.74 836 24.69 6.8 44.2 78 3.3 37.9
11:00 1007 29.74 836 24.69 6.9 44.4 79 3.5 38.4
11:05 1007 29.74 836 24.69 7.1 44.7 78 3.5 38.3
11:10 1007 29.74 836 24.69 7.3 45.1 78 3.7 38.7
11:15 1007 29.74 836 24.69 7.4 45.3 77 3.7 38.7
11:20 1007 29.74 836 24.69 7.4 45.3 78 3.8 38.9
11:25 1007 29.74 836 24.69 7.5 45.5 76 3.6 38.4
11:30 1007 29.74 836 24.69 7.7 45.8 77 3.9 39.1
11:35 1007 29.74 836 24.69 7.9 46.2 76 3.9 39
11:40 1007 29.74 836 24.69 8 46.3 77 4.2 39.6
11:45 1007 29.74 836 24.69 8 46.4 76 4 39.2
11:50 1007 29.74 836 24.69 7.9 46.2 76 4 39.2
11:55 1007 29.74 836 24.69 7.9 46.1 78 4.2 39.6
12:00 1007 29.74 836 24.69 8 46.4 78 4.4 39.9
12:05 1007 29.74 836 24.69 8.3 46.9 76 4.2 39.6
12:10 1007 29.74 836 24.69 8.5 47.2 78 4.8 40.6
12:15 1006 29.71 836 24.69 8.6 47.5 76 4.6 40.3
12:20 1006 29.71 836 24.69 8.9 48.1 74 4.6 40.2
12:25 1007 29.74 836 24.69 8.9 47.9 74 4.4 40
12:30 1007 29.74 836 24.69 9.1 48.3 72 4.2 39.6
12:35 1007 29.74 836 24.69 9.4 48.9 73 4.7 40.5
12:40 1007 29.74 836 24.69 9.5 49 68 3.9 39.1
12:45 1007 29.74 836 24.69 9.5 49.1 69 4.2 39.5
12:50 1006 29.71 836 24.69 9.5 49.1 72 4.7 40.5
12:55 1007 29.74 836 24.69 9.5 49 69 4.1 39.4
13:00 1007 29.74 836 24.69 9.4 48.8 70 4.2 39.6
13:05 1007 29.74 836 24.69 9.6 49.2 71 4.6 40.2
13:10 1007 29.74 836 24.69 9.7 49.5 72 4.9 40.8
13:15 1006 29.71 836 24.69 9.8 49.6 72 4.9 40.8
13:20 1006 29.71 836 24.69 9.7 49.4 72 4.8 40.7
13:25 1006 29.71 836 24.69 9.7 49.4 72 4.9 40.8
13:30 1006 29.71 836 24.69 9.8 49.6 72 5 41
13:35 1006 29.71 836 24.69 9.6 49.3 72 4.8 40.7
13:40 1006 29.71 836 24.69 9.5 49.2 72 4.7 40.4
13:45 1006 29.71 836 24.69 9.6 49.2 72 4.8 40.6
13:50 1006 29.71 836 24.69 9.5 49.2 74 5.1 41.2
13:55 1006 29.71 836 24.69 9.5 49.1 76 5.5 41.9
14:00 1006 29.71 835 24.66 9.4 49 73 4.9 40.9
14:05 1006 29.71 835 24.66 9.4 49 75 5.3 41.5
14:10 1006 29.71 835 24.66 9.3 48.7 77 5.6 42
14:15 1006 29.71 836 24.69 9.2 48.5 77 5.4 41.8
14:20 1006 29.71 836 24.69 9.2 48.5 78 5.5 41.9
14:25 1006 29.71 836 24.69 9.2 48.6 77 5.4 41.7
14:30 1006 29.71 836 24.69 9.3 48.8 76 5.4 41.7
14:35 1006 29.71 836 24.69 9.4 48.9 75 5.2 41.4
14:40 1006 29.71 836 24.69 9.5 49 76 5.5 41.8
14:45 1006 29.71 836 24.69 9.5 49 76 5.4 41.7
14:50 1006 29.71 835 24.66 9.5 49 76 5.6 42
14:55 1006 29.71 835 24.66 9.4 49 76 5.5 41.9
15:00 1006 29.71 835 24.66 9.4 49 77 5.7 42.2
15:05 1006 29.71 835 24.66 9.4 49 77 5.6 42
15:10 1006 29.71 835 24.66 9.5 49.1 77 5.7 42.3
15:15 1006 29.71 836 24.69 9.5 49.1 78 5.9 42.7
15:20 1007 29.74 836 24.69 9.6 49.2 78 6 42.8
15:25 1006 29.71 836 24.69 9.5 49.1 81 6.4 43.5
15:30 1006 29.71 836 24.69 9.2 48.6 83 6.4 43.6
15:35 1006 29.71 836 24.69 9 48.3 84 6.5 43.7
15:40 1006 29.71 836 24.69 9 48.1 86 6.7 44.1
15:45 1006 29.71 836 24.69 8.9 47.9 86 6.6 43.9
15:50 1007 29.74 836 24.69 8.8 47.9 86 6.6 43.9
15:55 1007 29.74 836 24.69 8.8 47.8 87 6.7 44.1
16:00 1007 29.74 836 24.69 8.7 47.7 87 6.7 44.1
16:05 1007 29.74 836 24.69 8.7 47.6 87 6.6 43.9
16:10 1007 29.74 836 24.69 8.6 47.5 87 6.6 43.9
16:15 1007 29.74 836 24.69 8.6 47.4 87 6.6 43.8
16:20 1007 29.74 836 24.69 8.6 47.4 88 6.6 43.9
16:25 1007 29.74 836 24.69 8.5 47.2 89 6.7 44.1
16:30 1007 29.74 836 24.69 8.5 47.2 89 6.7 44
16:35 1007 29.74 836 24.69 8.5 47.2 90 6.9 44.4
16:40 1007 29.74 836 24.69 8.4 47.1 88 6.5 43.7
16:45 1007 29.74 836 24.69 8.4 47.1 86 6.2 43.2
16:50 1007 29.74 837 24.72 8.4 47 85 5.9 42.7
16:55 1007 29.74 837 24.72 8.3 47 87 6.3 43.3
17:00 1007 29.74 837 24.72 8.2 46.8 88 6.3 43.4
17:05 1007 29.74 837 24.72 8.1 46.5 88 6.2 43.2
17:10 1007 29.74 836 24.69 8 46.4 89 6.4 43.5
17:15 1007 29.74 836 24.69 8 46.4 89 6.3 43.4
17:20 1007 29.74 836 24.69 8.1 46.5 90 6.5 43.7
17:25 1007 29.74 836 24.69 8.1 46.6 90 6.6 43.9
17:30 1007 29.74 836 24.69 8.1 46.7 88 6.3 43.3
17:35 1007 29.74 836 24.69 8.1 46.6 90 6.5 43.7
17:40 1007 29.74 836 24.69 8 46.3 90 6.5 43.6
17:45 1007 29.74 836 24.69 7.8 46 91 6.4 43.5
17:50 1007 29.74 836 24.69 7.4 45.3 94 6.5 43.6
17:55 1007 29.74 836 24.69 7.3 45.1 93 6.2 43.1
18:00 1007 29.74 836 24.69 7.1 44.8 92 5.9 42.6
18:05 1007 29.74 836 24.69 7.1 44.8 90 5.6 42.1
18:10 1007 29.74 836 24.69 7.3 45.1 90 5.7 42.2
18:15 1007 29.74 836 24.69 7.4 45.4 88 5.6 42
18:20 1007 29.74 836 24.69 7.5 45.5 87 5.4 41.8
18:25 1007 29.74 836 24.69 7.6 45.6 84 5.1 41.1
18:30 1007 29.74 836 24.69 8 46.4 82 5.1 41.2
18:35 1007 29.74 836 24.69 8.2 46.8 83 5.6 42.1
18:40 1007 29.74 836 24.69 8.2 46.7 84 5.7 42.2
18:45 1007 29.74 836 24.69 8.1 46.7 85 5.8 42.4
18:50 1007 29.74 836 24.69 8.1 46.5 80 4.8 40.7
18:55 1007 29.74 836 24.69 8 46.5 78 4.5 40
19:00 1007 29.74 837 24.72 8 46.4 78 4.3 39.8
19:05 1007 29.74 837 24.72 7.9 46.2 78 4.4 39.9
19:10 1008 29.77 837 24.72 7.8 46 79 4.3 39.7
19:15 1008 29.77 837 24.72 7.5 45.5 80 4.4 39.9
19:20 1008 29.77 837 24.72 7.2 44.9 82 4.4 39.9
19:25 1008 29.77 837 24.72 6.9 44.4 82 4 39.1
19:30 1008 29.77 837 24.72 6.8 44.2 83 4 39.3
19:35 1008 29.77 837 24.72 6.7 44.1 83 4 39.2
19:40 1008 29.77 837 24.72 6.6 43.9 84 4.1 39.3
19:45 1008 29.77 837 24.72 6.5 43.7 85 4.2 39.5
19:50 1008 29.77 837 24.72 6.6 43.8 77 2.9 37.2
19:55 1008 29.77 837 24.72 6.9 44.4 76 2.9 37.3
20:00 1008 29.77 837 24.72 6.9 44.4 76 3 37.4
20:05 1008 29.77 837 24.72 6.8 44.3 78 3.2 37.8
20:10 1008 29.77 837 24.72 6.8 44.2 77 3 37.5
20:15 1008 29.77 837 24.72 6.6 43.9 77 2.9 37.2
20:20 1008 29.77 837 24.72 6.7 44 80 3.4 38.2
20:25 1008 29.77 837 24.72 6.6 44 78 3 37.4
20:30 1008 29.77 837 24.72 6.6 43.9 79 3.2 37.7
20:35 1008 29.77 837 24.72 6.4 43.5 77 2.7 36.8
20:40 1008 29.77 837 24.72 6.3 43.4 79 2.9 37.3
20:45 1008 29.77 838 24.75 6.3 43.3 81 3.3 37.9
20:50 1008 29.77 837 24.72 6.2 43.1 81 3.2 37.8
20:55 1008 29.77 837 24.72 6.1 43 82 3.3 38
21:00 1008 29.77 837 24.72 6.1 42.9 83 3.5 38.2
21:05 1008 29.77 838 24.75 5.9 42.6 85 3.5 38.3
21:10 1008 29.77 837 24.72 5.8 42.5 86 3.7 38.6
21:15 1008 29.77 837 24.72 5.8 42.4 86 3.6 38.5
21:20 1008 29.77 837 24.72 5.8 42.5 86 3.6 38.5
21:25 1008 29.77 837 24.72 6 42.8 89 4.4 39.9
21:30 1008 29.77 837 24.72 5.9 42.7 85 3.6 38.5
21:35 1008 29.77 837 24.72 5.9 42.6 85 3.5 38.3
21:40 1008 29.77 837 24.72 6 42.7 84 3.5 38.3
21:45 1008 29.77 837 24.72 6 42.8 84 3.5 38.3
21:50 1008 29.77 838 24.75 5.9 42.6 87 3.8 38.9
21:55 1008 29.77 838 24.75 5.6 42.1 81 2.6 36.7
22:00 1008 29.77 838 24.75 5.8 42.5 82 3 37.4
22:05 1008 29.77 838 24.75 5.8 42.4 85 3.5 38.4
22:10 1008 29.77 838 24.75 5.7 42.2 88 3.9 39.1
22:15 1008 29.77 838 24.75 5.6 42.1 89 3.9 39
22:20 1008 29.77 837 24.72 5.6 42 89 3.9 39.1
22:25 1008 29.77 837 24.72 5.5 41.9 90 4 39.3
22:30 1008 29.77 837 24.72 5.5 41.9 90 3.9 39.1
22:35 1008 29.77 837 24.72 5.3 41.5 89 3.6 38.4
22:40 1008 29.77 837 24.72 5.4 41.7 91 4 39.2
22:45 1008 29.77 837 24.72 5.3 41.5 91 3.9 39
22:50 1008 29.77 837 24.72 5.2 41.3 87 3.1 37.6
22:55 1008 29.77 837 24.72 5.4 41.7 89 3.7 38.6
23:00 1008 29.77 837 24.72 5.7 42.2 85 3.4 38
23:05 1008 29.77 837 24.72 5.9 42.6 81 2.9 37.2
23:10 1008 29.77 837 24.72 5.9 42.7 80 2.8 37
23:15 1007 29.74 837 24.72 5.8 42.5 80 2.6 36.7
23:20 1007 29.74 837 24.72 5.8 42.4 77 2.1 35.8
23:25 1007 29.74 837 24.72 6 42.8 80 2.7 36.9
23:30 1007 29.74 836 24.69 6.2 43.2 78 2.7 36.8
23:35 1007 29.74 836 24.69 6.2 43.2 78 2.7 36.9
23:40 1007 29.74 836 24.69 6.4 43.5 77 2.7 36.9
23:45 1007 29.74 836 24.69 6.5 43.6 75 2.4 36.3
23:50 1007 29.74 836 24.69 6.5 43.6 74 2.2 35.9
23:55 1007 29.74 836 24.69 6 42.8 77 2.3 36.1
24:00 1007 29.74 836 24.69 5.7 42.3 74 1.4 34.6